createdAt,value
2019-03-06T00:04:59.290Z,18.80
2019-03-06T00:07:48.081Z,12.83
2019-03-06T00:10:36.901Z,15.67
2019-03-06T00:13:25.696Z,25.00
2019-03-06T00:16:14.512Z,15.53
2019-03-06T00:19:03.320Z,20.47
2019-03-06T00:21:52.130Z,19.70
2019-03-06T00:24:40.924Z,20.40
2019-03-06T00:27:29.738Z,17.83
2019-03-06T00:33:47.326Z,13.97
2019-03-06T00:36:43.749Z,18.20
2019-03-06T00:45:22.732Z,17.20
2019-03-06T00:48:11.541Z,16.93
2019-03-06T00:51:00.342Z,25.20
2019-03-06T00:53:41.856Z,19.00
2019-03-06T00:56:30.646Z,31.60
2019-03-06T00:59:19.463Z,18.95
2019-03-06T01:02:08.329Z,15.13
2019-03-06T01:04:57.143Z,21.67
2019-03-06T01:07:45.939Z,22.10
2019-03-06T01:10:34.821Z,16.23
2019-03-06T01:13:23.624Z,20.73
2019-03-06T01:16:12.443Z,17.20
2019-03-06T01:19:01.245Z,18.80
2019-03-06T01:21:50.061Z,16.20
2019-03-06T01:24:38.851Z,14.63
2019-03-06T01:27:27.735Z,14.80
2019-03-06T01:30:35.867Z,12.93
2019-03-06T01:33:43.691Z,13.70
2019-03-06T01:39:50.582Z,13.57
2019-03-06T01:45:48.791Z,17.70
2019-03-06T01:48:37.566Z,14.90
2019-03-06T01:51:26.388Z,14.87
2019-03-06T01:54:09.647Z,16.10
2019-03-06T01:56:58.463Z,16.30
2019-03-06T01:59:47.257Z,14.03
2019-03-06T02:02:36.116Z,12.40
2019-03-06T02:05:25.123Z,15.90
2019-03-06T02:08:14.345Z,14.40
2019-03-06T02:14:10.972Z,15.07
2019-03-06T02:16:59.785Z,16.50
2019-03-06T02:19:39.755Z,15.60
2019-03-06T02:22:28.645Z,16.87
2019-03-06T02:28:11.831Z,15.80
2019-03-06T02:31:00.652Z,14.27
2019-03-06T02:33:49.454Z,16.97
2019-03-06T02:36:38.275Z,14.57
2019-03-06T02:39:27.073Z,15.60
2019-03-06T02:42:15.884Z,14.63
2019-03-06T02:45:27.333Z,13.03
2019-03-06T02:48:16.153Z,14.40
2019-03-06T02:51:05.031Z,13.83
2019-03-06T02:53:44.854Z,13.40
2019-03-06T02:56:33.658Z,12.00
2019-03-06T03:05:49.886Z,13.62
2019-03-06T03:08:38.694Z,10.17
2019-03-06T03:11:27.529Z,14.10
2019-03-06T03:14:16.316Z,15.03
2019-03-06T03:17:05.130Z,12.40
2019-03-06T03:19:54.008Z,12.68
2019-03-06T03:22:42.818Z,14.23
2019-03-06T03:25:31.788Z,14.07
2019-03-06T03:28:39.882Z,13.37
2019-03-06T03:34:57.270Z,12.90
2019-03-06T03:37:46.075Z,10.80
2019-03-06T03:40:36.626Z,10.47
2019-03-06T03:43:25.444Z,9.93
2019-03-06T03:46:15.981Z,9.40
2019-03-06T03:49:04.784Z,14.40
2019-03-06T03:51:47.840Z,14.47
2019-03-06T03:54:36.633Z,16.90
2019-03-06T03:57:25.455Z,12.60
2019-03-06T04:00:33.570Z,14.37
2019-03-06T04:03:22.396Z,15.80
2019-03-06T04:09:19.096Z,25.80
2019-03-06T04:12:07.881Z,13.10
2019-03-06T04:14:56.704Z,15.40
2019-03-06T04:17:45.498Z,14.10
2019-03-06T04:20:34.393Z,15.87
2019-03-06T04:23:23.193Z,17.80
2019-03-06T04:26:12.009Z,17.77
2019-03-06T04:29:00.807Z,18.00
2019-03-06T04:31:49.625Z,16.57
2019-03-06T04:34:38.466Z,17.10
2019-03-06T04:37:27.357Z,15.40
2019-03-06T04:40:16.291Z,18.52
2019-03-06T04:43:24.203Z,18.07
2019-03-06T04:46:13.093Z,23.63
2019-03-06T04:49:01.912Z,22.70
2019-03-06T04:51:50.778Z,24.23
2019-03-06T04:54:33.176Z,31.90
2019-03-06T04:57:22.039Z,33.27
2019-03-06T05:00:30.188Z,26.63
2019-03-06T05:03:19.000Z,35.47
2019-03-06T05:06:07.795Z,30.00
2019-03-06T05:08:56.619Z,29.93
2019-03-06T05:11:45.418Z,25.33
2019-03-06T05:14:34.310Z,29.60
2019-03-06T05:17:42.131Z,17.37
2019-03-06T05:20:30.944Z,21.40
2019-03-06T05:23:19.776Z,20.30
2019-03-06T05:26:08.599Z,25.23
2019-03-06T05:28:57.445Z,24.00
2019-03-06T05:32:25.090Z,25.97
2019-03-06T05:35:52.592Z,28.10
2019-03-06T05:39:20.138Z,35.00
2019-03-06T05:42:08.994Z,34.47
2019-03-06T05:44:59.502Z,32.80
2019-03-06T05:47:48.318Z,30.57
2019-03-06T05:50:38.859Z,33.70
2019-03-06T05:53:20.941Z,32.77
2019-03-06T05:56:09.763Z,31.67
2019-03-06T05:58:58.611Z,37.47
2019-03-06T06:01:47.418Z,43.67
2019-03-06T06:04:36.217Z,36.10
2019-03-06T06:07:25.029Z,46.10
2019-03-06T06:10:33.164Z,45.73
2019-03-06T06:13:21.967Z,43.93
2019-03-06T06:16:10.781Z,41.87
2019-03-06T06:19:01.623Z,38.37
2019-03-06T06:22:09.141Z,38.87
2019-03-06T06:24:50.952Z,48.67
2019-03-06T06:27:39.814Z,36.07
2019-03-06T06:30:28.731Z,29.48
2019-03-06T06:33:17.542Z,29.47
2019-03-06T06:36:25.380Z,37.83
2019-03-06T06:39:14.184Z,33.07
2019-03-06T06:42:03.006Z,33.80
2019-03-06T06:48:19.746Z,29.07
2019-03-06T06:51:29.453Z,32.23
2019-03-06T06:54:15.803Z,33.93
2019-03-06T06:57:43.286Z,28.77
2019-03-06T07:04:49.433Z,33.27
2019-03-06T07:10:47.471Z,32.13
2019-03-06T07:13:55.296Z,33.57
2019-03-06T07:17:03.135Z,33.40
2019-03-06T07:26:09.038Z,26.83
2019-03-06T07:29:16.860Z,27.20
2019-03-06T07:32:24.767Z,30.60
2019-03-06T07:35:54.744Z,31.50
2019-03-06T07:42:00.163Z,20.83
2019-03-06T07:45:46.710Z,24.47
2019-03-06T07:48:54.595Z,25.97
2019-03-06T07:52:02.439Z,23.07
2019-03-06T07:55:10.287Z,22.53
2019-03-06T07:58:37.867Z,19.40
2019-03-06T08:01:47.596Z,18.83
2019-03-06T08:04:36.424Z,16.77
2019-03-06T08:07:25.324Z,18.20
2019-03-06T08:16:59.115Z,16.40
2019-03-06T08:19:48.075Z,15.95
2019-03-06T08:22:56.177Z,17.77
2019-03-06T08:25:57.109Z,19.00
2019-03-06T08:28:45.923Z,14.63
2019-03-06T08:34:30.681Z,21.43
2019-03-06T08:37:19.484Z,17.37
2019-03-06T08:40:29.218Z,18.00
2019-03-06T08:43:18.019Z,14.57
2019-03-06T08:46:25.866Z,17.77
2019-03-06T08:49:33.690Z,14.70
2019-03-06T08:52:41.528Z,11.03
2019-03-06T08:55:49.425Z,11.97
2019-03-06T08:58:57.266Z,12.70
2019-03-06T09:02:05.404Z,9.60
2019-03-06T09:05:13.514Z,10.17
2019-03-06T09:08:21.411Z,9.90
2019-03-06T09:11:29.258Z,8.30
2019-03-06T09:17:46.732Z,7.43
2019-03-06T09:20:54.558Z,8.17
2019-03-06T09:24:02.391Z,12.30
2019-03-06T09:30:19.636Z,6.43
2019-03-06T09:33:27.405Z,6.53
2019-03-06T09:36:35.247Z,9.03
2019-03-06T09:39:43.076Z,7.83
2019-03-06T09:42:50.987Z,7.20
2019-03-06T09:45:58.837Z,6.67
2019-03-06T09:49:11.538Z,5.33
2019-03-06T09:55:12.182Z,6.67
2019-03-06T09:58:20.260Z,7.27
2019-03-06T10:01:08.857Z,5.95
2019-03-06T10:04:16.699Z,8.70
2019-03-06T10:07:24.691Z,4.83
2019-03-06T10:10:32.776Z,4.67
2019-03-06T10:16:50.000Z,6.67
2019-03-06T10:19:58.102Z,6.00
2019-03-06T10:22:48.832Z,6.23
2019-03-06T10:25:37.451Z,4.70
2019-03-06T10:28:27.487Z,6.07
2019-03-06T10:31:29.211Z,4.85
2019-03-06T10:34:18.025Z,5.27
2019-03-06T10:39:55.669Z,6.10
2019-03-06T10:42:44.562Z,5.47
2019-03-06T10:45:52.461Z,6.77
2019-03-06T10:48:41.402Z,7.40
2019-03-06T10:51:31.940Z,7.30
2019-03-06T10:54:13.852Z,8.40
2019-03-06T10:57:02.764Z,8.17
2019-03-06T10:59:53.372Z,9.07
2019-03-06T11:02:42.233Z,5.60
2019-03-06T11:08:30.371Z,5.13
2019-03-06T11:11:19.168Z,4.77
2019-03-06T11:14:28.912Z,4.00
2019-03-06T11:17:17.784Z,6.40
2019-03-06T11:20:29.480Z,6.37
2019-03-06T11:23:37.372Z,4.50
2019-03-06T11:26:26.362Z,4.40
2019-03-06T11:29:15.224Z,4.80
2019-03-06T11:35:40.209Z,5.27
2019-03-06T11:38:30.923Z,5.10
2019-03-06T11:41:19.709Z,3.93
2019-03-06T11:44:08.600Z,3.40
2019-03-06T11:46:57.395Z,6.10
2019-03-06T11:50:05.249Z,5.40
2019-03-06T11:52:54.111Z,5.50
2019-03-06T11:55:35.654Z,7.00
2019-03-06T11:58:24.490Z,6.27
2019-03-06T12:07:32.515Z,5.60
2019-03-06T12:10:21.401Z,5.10
2019-03-06T12:13:31.165Z,5.10
2019-03-06T12:16:20.102Z,6.37
2019-03-06T12:19:08.999Z,4.07
2019-03-06T12:21:57.916Z,4.17
2019-03-06T12:24:46.730Z,4.73
2019-03-06T12:30:43.772Z,6.10
2019-03-06T12:33:32.576Z,5.03
2019-03-06T12:36:21.563Z,5.80
2019-03-06T12:39:10.392Z,3.07
2019-03-06T12:41:59.260Z,3.67
2019-03-06T12:44:48.077Z,7.60
2019-03-06T12:47:36.898Z,6.20
2019-03-06T12:50:54.002Z,4.40
2019-03-06T12:53:35.630Z,2.80
2019-03-06T12:56:18.122Z,8.13
2019-03-06T12:59:07.016Z,7.17
2019-03-06T13:01:55.906Z,4.17
2019-03-06T13:04:44.710Z,4.60
2019-03-06T13:07:33.536Z,4.10
2019-03-06T13:10:22.639Z,6.47
2019-03-06T13:13:11.457Z,4.17
2019-03-06T13:16:00.358Z,6.77
2019-03-06T13:18:50.872Z,6.23
2019-03-06T13:21:41.465Z,7.90
2019-03-06T13:27:24.645Z,6.63
2019-03-06T13:36:41.799Z,6.87
2019-03-06T13:39:30.693Z,5.15
2019-03-06T13:45:28.977Z,5.60
2019-03-06T13:48:17.783Z,5.70
2019-03-06T13:51:06.677Z,6.27
2019-03-06T13:53:56.660Z,6.15
2019-03-06T13:56:39.039Z,5.30
2019-03-06T13:59:28.014Z,4.73
2019-03-06T14:02:16.903Z,4.50
2019-03-06T14:08:25.919Z,5.30
2019-03-06T14:11:14.794Z,5.70
2019-03-06T14:14:03.613Z,3.27
2019-03-06T14:16:52.410Z,4.80
2019-03-06T14:19:41.231Z,6.97
2019-03-06T14:22:30.208Z,5.20
2019-03-06T14:28:15.923Z,7.20
2019-03-06T14:31:06.198Z,5.70
2019-03-06T14:33:55.976Z,3.47
2019-03-06T14:36:46.449Z,6.10
2019-03-06T14:39:35.317Z,5.47
2019-03-06T14:42:24.202Z,5.43
2019-03-06T14:45:33.932Z,3.60
2019-03-06T14:48:22.739Z,4.30
2019-03-06T14:51:11.556Z,4.70
2019-03-06T14:54:00.381Z,4.97
2019-03-06T14:56:43.620Z,6.47
2019-03-06T14:59:32.441Z,3.90
2019-03-06T15:02:21.241Z,3.67
2019-03-06T15:05:10.059Z,2.93
2019-03-06T15:07:58.935Z,3.70
2019-03-06T15:10:47.758Z,4.93
2019-03-06T15:13:36.585Z,4.00
2019-03-06T15:16:25.398Z,4.70
2019-03-06T15:19:14.209Z,4.50
2019-03-06T15:22:03.010Z,3.90
2019-03-06T15:24:51.834Z,4.60
2019-03-06T15:27:42.350Z,6.27
2019-03-06T15:30:31.177Z,4.80
2019-03-06T15:33:20.119Z,4.07
2019-03-06T15:36:08.915Z,4.40
2019-03-06T15:38:57.731Z,3.50
2019-03-06T15:41:46.530Z,3.37
2019-03-06T15:44:35.426Z,7.47
2019-03-06T15:47:43.246Z,4.37
2019-03-06T15:50:51.238Z,6.35
2019-03-06T15:56:47.917Z,7.13
2019-03-06T15:59:36.718Z,4.47
2019-03-06T16:08:56.544Z,3.35
2019-03-06T16:11:45.347Z,6.37
2019-03-06T16:14:35.897Z,4.50
2019-03-06T16:17:24.699Z,4.23
2019-03-06T16:20:36.151Z,4.25
2019-03-06T16:23:24.974Z,5.53
2019-03-06T16:26:13.780Z,4.10
2019-03-06T16:29:02.602Z,6.20
2019-03-06T16:31:51.397Z,3.30
2019-03-06T16:34:40.217Z,6.87
2019-03-06T16:37:29.048Z,5.27
2019-03-06T16:40:37.166Z,8.00
2019-03-06T16:43:25.979Z,5.10
2019-03-06T16:46:14.808Z,7.07
2019-03-06T16:49:03.621Z,7.50
2019-03-06T16:51:52.508Z,3.93
2019-03-06T16:54:41.384Z,6.63
2019-03-06T16:57:23.900Z,7.47
2019-03-06T17:00:32.664Z,4.47
2019-03-06T17:03:21.489Z,4.07
2019-03-06T17:06:29.309Z,5.07
2019-03-06T17:12:14.682Z,4.40
2019-03-06T17:18:37.174Z,6.17
2019-03-06T17:21:26.062Z,5.10
2019-03-06T17:27:24.411Z,5.40
2019-03-06T17:30:34.127Z,3.67
2019-03-06T17:33:43.906Z,4.50
2019-03-06T17:36:32.811Z,3.57
2019-03-06T17:39:21.694Z,4.73
2019-03-06T17:42:10.667Z,4.10
2019-03-06T17:44:59.516Z,6.60
2019-03-06T17:47:48.405Z,5.03
2019-03-06T17:50:58.125Z,6.43
2019-03-06T17:53:46.942Z,7.17
2019-03-06T17:56:35.833Z,7.20
2019-03-06T17:59:24.639Z,5.07
2019-03-06T18:05:08.073Z,4.20
2019-03-06T18:07:56.948Z,6.20
2019-03-06T18:10:45.772Z,4.60
2019-03-06T18:13:36.300Z,4.90
2019-03-06T18:16:25.118Z,4.97
2019-03-06T18:19:15.647Z,3.93
2019-03-06T18:22:04.461Z,5.93
2019-03-06T18:24:53.392Z,5.33
2019-03-06T18:27:42.391Z,5.60
2019-03-06T18:30:31.341Z,5.87
2019-03-06T18:33:20.340Z,4.10
2019-03-06T18:36:09.212Z,4.67
2019-03-06T18:38:58.082Z,5.17
2019-03-06T18:41:46.989Z,6.30
2019-03-06T18:44:35.877Z,7.40
2019-03-06T18:47:24.696Z,5.20
2019-03-06T18:50:34.562Z,2.63
2019-03-06T18:53:23.364Z,5.70
2019-03-06T18:56:12.185Z,5.33
2019-03-06T18:58:54.710Z,6.12
2019-03-06T19:01:43.720Z,6.07
2019-03-06T19:04:32.523Z,14.20
2019-03-06T19:13:36.336Z,4.37
2019-03-06T19:16:25.138Z,4.80
2019-03-06T19:19:13.976Z,4.00
2019-03-06T19:22:02.868Z,5.30
2019-03-06T19:24:51.703Z,4.23
2019-03-06T19:27:40.819Z,6.47
2019-03-06T19:30:29.643Z,5.77
2019-03-06T19:33:18.483Z,3.90
2019-03-06T19:36:07.445Z,4.17
2019-03-06T19:38:56.711Z,3.72
2019-03-06T19:41:45.578Z,5.57
2019-03-06T19:44:34.398Z,14.53
2019-03-06T19:47:23.222Z,6.07
2019-03-06T19:50:31.391Z,4.90
2019-03-06T19:53:20.249Z,4.30
2019-03-06T19:56:01.630Z,5.67
2019-03-06T19:58:50.460Z,5.23
2019-03-06T20:01:39.261Z,4.20
2019-03-06T20:04:28.224Z,11.67
2019-03-06T20:07:17.084Z,5.90
2019-03-06T20:13:21.846Z,5.40
2019-03-06T20:16:10.659Z,5.90
2019-03-06T20:18:59.491Z,7.40
2019-03-06T20:21:48.297Z,5.47
2019-03-06T20:24:37.195Z,5.23
2019-03-06T20:27:26.074Z,5.50
2019-03-06T20:30:37.546Z,8.20
2019-03-06T20:33:26.433Z,4.60
2019-03-06T20:36:07.814Z,4.17
2019-03-06T20:38:56.938Z,4.25
2019-03-06T20:41:47.524Z,5.40
2019-03-06T20:44:36.367Z,6.43
2019-03-06T20:47:25.164Z,8.00
2019-03-06T20:50:34.926Z,6.27
2019-03-06T20:53:23.722Z,6.70
2019-03-06T20:56:12.557Z,8.50
2019-03-06T21:02:09.116Z,5.20
2019-03-06T21:04:57.952Z,6.63
2019-03-06T21:07:47.195Z,6.70
2019-03-06T21:10:36.013Z,5.27
2019-03-06T21:13:24.834Z,5.70
2019-03-06T21:16:13.641Z,7.20
2019-03-06T21:19:04.257Z,5.50
2019-03-06T21:22:12.086Z,5.87
2019-03-06T21:25:00.911Z,8.63
2019-03-06T21:27:49.713Z,5.47
2019-03-06T21:33:34.200Z,5.60
2019-03-06T21:36:15.674Z,5.37
2019-03-06T21:42:32.975Z,4.80
2019-03-06T21:45:21.843Z,7.50
2019-03-06T21:48:10.740Z,7.03
2019-03-06T21:54:07.326Z,5.50
2019-03-06T21:56:57.856Z,6.40
2019-03-06T21:59:46.702Z,5.50
2019-03-06T22:02:35.489Z,4.60
2019-03-06T22:05:24.323Z,4.63
2019-03-06T22:08:13.198Z,4.70
2019-03-06T22:11:02.022Z,4.93
2019-03-06T22:13:50.832Z,7.00
2019-03-06T22:16:39.651Z,8.93
2019-03-06T22:19:28.474Z,6.30
2019-03-06T22:22:17.276Z,7.60
2019-03-06T22:25:27.014Z,6.08
2019-03-06T22:28:15.815Z,4.60
2019-03-06T22:31:04.641Z,4.57
2019-03-06T22:33:53.560Z,4.00
2019-03-06T22:36:35.574Z,4.40
2019-03-06T22:39:24.380Z,4.20
2019-03-06T22:42:13.204Z,5.87
2019-03-06T22:45:02.010Z,6.27
2019-03-06T22:47:50.834Z,6.03
2019-03-06T22:50:39.639Z,6.50
2019-03-06T22:53:28.461Z,6.10
2019-03-06T22:56:17.281Z,5.33
2019-03-06T22:59:06.107Z,7.42
2019-03-06T23:01:55.074Z,5.80
2019-03-06T23:04:43.904Z,5.87
2019-03-06T23:07:32.711Z,7.23
2019-03-06T23:10:23.272Z,6.17
2019-03-06T23:13:12.366Z,5.20
2019-03-06T23:16:02.900Z,10.10
2019-03-06T23:18:51.786Z,7.70
2019-03-06T23:21:42.306Z,4.90
2019-03-06T23:24:31.133Z,11.93
2019-03-06T23:27:19.930Z,7.03
2019-03-06T23:30:29.672Z,7.50
2019-03-06T23:33:18.473Z,5.33
2019-03-06T23:36:07.301Z,4.97
2019-03-06T23:38:48.489Z,2.87
2019-03-06T23:41:37.312Z,5.00
2019-03-06T23:44:26.121Z,9.93
2019-03-06T23:47:15.009Z,5.87
2019-03-06T23:50:24.723Z,6.90
2019-03-06T23:56:13.061Z,4.97
2019-03-06T23:59:02.343Z,5.80
